createdAt,value
2023-05-19T00:00:37.308Z,4.85
2023-05-19T00:03:05.223Z,4.95
2023-05-19T00:05:32.434Z,5.18
2023-05-19T00:08:01.283Z,4.72
2023-05-19T00:10:32.237Z,4.82
2023-05-19T00:12:59.597Z,4.47
2023-05-19T00:15:26.909Z,4.65
2023-05-19T00:17:55.551Z,4.75
2023-05-19T00:20:22.990Z,4.70
2023-05-19T00:22:51.149Z,5.25
2023-05-19T00:25:18.055Z,5.05
2023-05-19T00:27:44.952Z,5.13
2023-05-19T00:30:12.115Z,4.60
2023-05-19T00:32:39.072Z,5.22
2023-05-19T00:35:06.456Z,4.72
2023-05-19T00:37:33.353Z,4.22
2023-05-19T00:40:00.314Z,5.38
2023-05-19T00:42:27.318Z,4.78
2023-05-19T00:44:54.316Z,5.68
2023-05-19T00:47:21.306Z,4.47
2023-05-19T00:49:48.136Z,4.90
2023-05-19T00:52:15.150Z,4.88
2023-05-19T00:54:42.517Z,4.93
2023-05-19T00:57:09.658Z,5.20
2023-05-19T00:59:36.861Z,4.57
2023-05-19T01:02:03.932Z,5.18
2023-05-19T01:04:35.076Z,5.07
2023-05-19T01:07:02.079Z,4.60
2023-05-19T01:09:29.176Z,4.55
2023-05-19T01:11:56.210Z,5.43
2023-05-19T01:14:23.179Z,5.05
2023-05-19T01:17:05.624Z,4.80
2023-05-19T01:19:47.359Z,5.30
2023-05-19T01:22:36.542Z,5.35
2023-05-19T01:25:17.710Z,5.15
2023-05-19T01:27:56.326Z,5.10
2023-05-19T01:30:34.166Z,5.00
2023-05-19T01:33:03.819Z,5.85
2023-05-19T01:35:33.061Z,5.40
2023-05-19T01:38:01.974Z,5.47
2023-05-19T01:40:30.497Z,4.80
2023-05-19T01:42:59.938Z,5.63
2023-05-19T01:45:29.364Z,5.50
2023-05-19T01:47:59.113Z,5.45
2023-05-19T01:50:26.762Z,5.95
2023-05-19T01:52:53.756Z,5.95
2023-05-19T01:55:22.927Z,5.72
2023-05-19T01:58:02.515Z,6.28
2023-05-19T02:00:35.473Z,5.95
2023-05-19T02:03:11.337Z,6.03
2023-05-19T02:05:57.297Z,9.55
2023-05-19T02:08:43.587Z,6.65
2023-05-19T02:11:38.244Z,6.53
2023-05-19T02:14:13.856Z,6.80
2023-05-19T02:16:46.046Z,5.97
2023-05-19T02:19:28.357Z,6.28
2023-05-19T02:21:55.418Z,6.60
2023-05-19T02:24:22.933Z,6.95
2023-05-19T02:26:51.867Z,6.47
2023-05-19T02:29:21.907Z,7.07
2023-05-19T02:31:48.863Z,6.40
2023-05-19T02:34:15.959Z,7.40
2023-05-19T02:36:43.561Z,6.68
2023-05-19T02:39:11.454Z,7.32
2023-05-19T02:41:38.797Z,7.30
2023-05-19T02:44:06.089Z,7.40
2023-05-19T02:46:33.378Z,6.90
2023-05-19T02:49:00.573Z,6.90
2023-05-19T02:51:27.504Z,8.02
2023-05-19T02:53:54.268Z,7.22
2023-05-19T02:56:21.765Z,7.88
2023-05-19T02:58:48.637Z,7.68
2023-05-19T03:01:15.780Z,8.38
2023-05-19T03:03:42.664Z,8.65
2023-05-19T03:06:09.601Z,8.68
2023-05-19T03:08:36.646Z,7.95
2023-05-19T03:11:03.766Z,8.60
2023-05-19T03:13:30.666Z,7.68
2023-05-19T03:15:59.234Z,8.23
2023-05-19T03:18:26.864Z,8.60
2023-05-19T03:20:54.127Z,9.23
2023-05-19T03:23:22.384Z,8.05
2023-05-19T03:25:49.257Z,9.10
2023-05-19T03:28:17.217Z,8.25
2023-05-19T03:30:44.218Z,8.73
2023-05-19T03:33:11.486Z,8.27
2023-05-19T03:35:38.882Z,8.93
2023-05-19T03:38:06.058Z,10.07
2023-05-19T03:40:33.332Z,8.77
2023-05-19T03:43:01.172Z,7.93
2023-05-19T03:45:28.618Z,8.43
2023-05-19T03:47:55.662Z,9.57
2023-05-19T03:50:23.073Z,9.07
2023-05-19T03:52:50.035Z,9.18
2023-05-19T03:55:17.102Z,9.15
2023-05-19T03:57:44.434Z,8.40
2023-05-19T04:00:12.385Z,9.30
2023-05-19T04:02:39.571Z,9.10
2023-05-19T04:05:07.186Z,9.65
2023-05-19T04:07:34.042Z,8.93
2023-05-19T04:10:00.952Z,9.88
2023-05-19T04:12:28.180Z,9.38
2023-05-19T04:14:54.992Z,9.30
2023-05-19T04:17:23.712Z,9.55
2023-05-19T04:19:51.083Z,9.02
2023-05-19T04:22:17.889Z,9.20
2023-05-19T04:24:46.033Z,9.63
2023-05-19T04:27:12.937Z,9.82
2023-05-19T04:29:40.853Z,14.20
2023-05-19T04:32:08.244Z,9.30
2023-05-19T04:34:35.703Z,9.43
2023-05-19T04:37:02.966Z,9.50
2023-05-19T04:39:29.982Z,10.25
2023-05-19T04:41:57.015Z,10.15
2023-05-19T04:44:24.053Z,9.82
2023-05-19T04:46:54.642Z,10.10
2023-05-19T04:49:21.597Z,10.32
2023-05-19T04:51:50.567Z,9.82
2023-05-19T04:54:18.491Z,10.13
2023-05-19T04:56:45.877Z,9.75
2023-05-19T04:59:12.768Z,10.20
2023-05-19T05:01:40.959Z,10.35
2023-05-19T05:04:07.883Z,10.30
2023-05-19T05:06:34.814Z,9.73
2023-05-19T05:09:03.573Z,9.55
2023-05-19T05:11:30.820Z,10.18
2023-05-19T05:14:00.713Z,9.75
2023-05-19T05:16:27.848Z,10.23
2023-05-19T05:18:55.014Z,9.95
2023-05-19T05:21:23.184Z,10.55
2023-05-19T05:23:52.018Z,9.13
2023-05-19T05:26:21.427Z,10.65
2023-05-19T05:28:48.374Z,10.95
2023-05-19T05:31:15.858Z,10.35
2023-05-19T05:33:43.636Z,10.25
2023-05-19T05:36:10.558Z,9.98
2023-05-19T05:38:37.499Z,9.23
2023-05-19T05:41:04.509Z,9.93
2023-05-19T05:43:31.408Z,9.52
2023-05-19T05:45:58.249Z,8.75
2023-05-19T05:48:25.436Z,8.65
2023-05-19T05:50:53.340Z,8.32
2023-05-19T05:53:21.444Z,7.63
2023-05-19T05:55:49.337Z,8.65
2023-05-19T05:58:17.152Z,8.13
2023-05-19T06:00:44.080Z,7.47
2023-05-19T06:03:11.532Z,7.03
2023-05-19T06:05:39.318Z,6.97
2023-05-19T06:08:06.378Z,7.32
2023-05-19T06:10:35.674Z,7.13
2023-05-19T06:13:02.802Z,7.25
2023-05-19T06:15:37.092Z,7.07
2023-05-19T06:18:04.022Z,7.40
2023-05-19T06:20:31.288Z,7.57
2023-05-19T06:22:58.574Z,7.35
2023-05-19T06:25:25.870Z,7.18
2023-05-19T06:27:52.855Z,6.82
2023-05-19T06:30:19.729Z,6.18
2023-05-19T06:32:47.006Z,8.68
2023-05-19T06:35:13.927Z,7.25
2023-05-19T06:37:40.708Z,7.22
2023-05-19T06:40:08.342Z,6.75
2023-05-19T06:42:35.144Z,6.72
2023-05-19T06:45:02.213Z,6.72
2023-05-19T06:47:29.176Z,6.82
2023-05-19T06:49:57.072Z,6.82
2023-05-19T06:52:24.567Z,6.63
2023-05-19T06:54:51.748Z,6.55
2023-05-19T06:57:18.602Z,6.53
2023-05-19T06:59:46.723Z,6.82
2023-05-19T07:02:13.809Z,6.60
2023-05-19T07:04:41.145Z,5.95
2023-05-19T07:07:08.214Z,7.10
2023-05-19T07:09:35.288Z,5.70
2023-05-19T07:12:02.116Z,5.35
2023-05-19T07:14:29.018Z,5.55
2023-05-19T07:16:55.961Z,6.25
2023-05-19T07:19:24.172Z,6.78
2023-05-19T07:21:51.377Z,6.13
2023-05-19T07:24:18.307Z,6.47
2023-05-19T07:26:45.225Z,6.75
2023-05-19T07:29:12.059Z,6.15
2023-05-19T07:31:39.231Z,6.35
2023-05-19T07:34:06.307Z,7.00
2023-05-19T07:36:34.247Z,5.60
2023-05-19T07:39:01.221Z,5.13
2023-05-19T07:41:28.304Z,5.25
2023-05-19T07:43:55.143Z,5.40
2023-05-19T07:46:22.464Z,5.22
2023-05-19T07:48:49.474Z,5.22
2023-05-19T07:51:25.240Z,4.80
2023-05-19T07:53:52.948Z,4.72
2023-05-19T07:56:19.842Z,4.40
2023-05-19T07:58:46.772Z,4.70
2023-05-19T08:01:13.895Z,4.35
2023-05-19T08:03:41.190Z,4.30
2023-05-19T08:06:08.424Z,4.25
2023-05-19T08:08:35.365Z,4.65
2023-05-19T08:11:04.316Z,4.47
2023-05-19T08:13:31.570Z,3.53
2023-05-19T08:16:01.478Z,3.30
2023-05-19T08:18:28.798Z,3.95
2023-05-19T08:20:57.014Z,3.25
2023-05-19T08:23:23.889Z,2.85
2023-05-19T08:25:51.020Z,2.60
2023-05-19T08:28:17.980Z,2.67
2023-05-19T08:30:47.928Z,2.42
2023-05-19T08:33:14.984Z,2.80
2023-05-19T08:35:43.086Z,2.35
2023-05-19T08:38:09.990Z,2.35
2023-05-19T08:40:38.182Z,2.33
2023-05-19T08:43:05.163Z,2.60
2023-05-19T08:48:03.222Z,2.10
2023-05-19T08:50:31.532Z,2.10
2023-05-19T08:53:32.341Z,1.95
2023-05-19T08:58:43.716Z,2.47
2023-05-19T09:01:17.013Z,3.75
2023-05-19T09:03:45.377Z,2.70
2023-05-19T09:06:13.134Z,2.13
2023-05-19T09:08:41.371Z,2.78
2023-05-19T09:11:10.220Z,1.83
2023-05-19T09:13:37.241Z,2.30
2023-05-19T09:16:04.615Z,2.03
2023-05-19T09:18:31.855Z,1.35
2023-05-19T09:21:02.612Z,1.90
2023-05-19T09:23:33.516Z,2.05
2023-05-19T09:26:07.430Z,2.47
2023-05-19T09:28:36.589Z,2.53
2023-05-19T09:31:08.781Z,2.22
2023-05-19T09:33:41.048Z,2.00
2023-05-19T09:36:11.020Z,1.92
2023-05-19T09:38:39.351Z,2.65
2023-05-19T09:41:07.715Z,2.20
2023-05-19T09:43:35.482Z,2.00
2023-05-19T09:46:14.571Z,2.92
2023-05-19T09:48:44.875Z,1.88
2023-05-19T09:51:12.490Z,1.40
2023-05-19T09:53:39.881Z,1.70
2023-05-19T09:56:10.308Z,2.13
2023-05-19T09:58:37.874Z,2.47
2023-05-19T10:01:05.582Z,1.95
2023-05-19T10:03:33.936Z,1.75
2023-05-19T10:06:05.702Z,2.17
2023-05-19T10:08:34.487Z,4.25
2023-05-19T10:11:02.577Z,1.77
2023-05-19T10:13:31.171Z,2.53
2023-05-19T10:16:00.270Z,1.80
2023-05-19T10:18:30.832Z,2.25
2023-05-19T10:20:59.107Z,1.92
2023-05-19T10:23:26.865Z,2.00
2023-05-19T10:25:58.533Z,2.03
2023-05-19T10:28:34.784Z,1.77
2023-05-19T10:31:05.174Z,2.45
2023-05-19T10:36:49.410Z,2.00
2023-05-19T10:39:28.198Z,2.30
2023-05-19T10:42:03.513Z,2.20
2023-05-19T10:45:05.180Z,2.20
2023-05-19T10:47:40.552Z,2.08
2023-05-19T10:50:08.667Z,1.35
2023-05-19T10:52:40.200Z,2.00
2023-05-19T10:55:18.054Z,2.17
2023-05-19T10:58:12.954Z,2.15
2023-05-19T11:00:41.391Z,2.42
2023-05-19T11:03:16.732Z,2.10
2023-05-19T11:05:46.784Z,2.10
2023-05-19T11:10:55.742Z,2.13
2023-05-19T11:13:23.213Z,2.15
2023-05-19T11:15:50.346Z,2.00
2023-05-19T11:18:32.683Z,2.22
2023-05-19T11:21:02.742Z,2.78
2023-05-19T11:23:35.536Z,2.13
2023-05-19T11:26:02.996Z,2.63
2023-05-19T11:28:34.321Z,2.00
2023-05-19T11:31:02.694Z,2.10
2023-05-19T11:33:32.684Z,2.42
2023-05-19T11:35:59.921Z,2.17
2023-05-19T11:38:28.702Z,2.10
2023-05-19T11:41:01.975Z,2.17
2023-05-19T11:43:29.040Z,2.22
2023-05-19T11:45:56.340Z,2.00
2023-05-19T11:48:24.792Z,2.33
2023-05-19T11:50:52.629Z,1.92
2023-05-19T11:53:21.375Z,2.55
2023-05-19T12:04:10.667Z,4.72
2023-05-19T12:06:37.860Z,2.60
2023-05-19T12:17:21.444Z,1.95
2023-05-19T12:19:49.561Z,12.48
2023-05-19T12:22:17.913Z,2.13
2023-05-19T12:24:46.080Z,2.20
2023-05-19T12:27:28.852Z,1.70
2023-05-19T12:30:00.066Z,2.22
2023-05-19T12:32:28.813Z,1.85
2023-05-19T12:37:33.300Z,2.38
2023-05-19T12:40:01.840Z,2.70
2023-05-19T12:42:32.531Z,2.10
2023-05-19T12:45:03.334Z,2.38
2023-05-19T12:47:37.027Z,2.55
2023-05-19T12:50:10.227Z,2.97
2023-05-19T12:52:45.924Z,3.15
2023-05-19T12:55:14.444Z,2.45
2023-05-19T12:57:44.437Z,2.33
2023-05-19T13:00:21.533Z,2.13
2023-05-19T13:03:01.529Z,2.30
2023-05-19T13:05:30.803Z,2.22
2023-05-19T13:08:18.510Z,1.98
2023-05-19T13:10:46.400Z,4.07
2023-05-19T13:13:13.921Z,2.83
2023-05-19T13:15:42.429Z,1.73
2023-05-19T13:18:10.985Z,2.53
2023-05-19T13:20:40.647Z,2.38
2023-05-19T13:23:07.929Z,2.50
2023-05-19T13:45:03.058Z,2.17
2023-05-19T13:47:30.635Z,2.45
2023-05-19T13:49:57.815Z,2.00
2023-05-19T13:52:28.148Z,2.45
2023-05-19T13:54:58.145Z,2.45
2023-05-19T13:57:26.420Z,2.00
2023-05-19T14:00:02.649Z,2.03
2023-05-19T14:02:33.110Z,2.45
2023-05-19T14:05:00.761Z,2.78
2023-05-19T14:07:28.353Z,2.55
2023-05-19T14:09:55.441Z,2.50
2023-05-19T14:12:25.577Z,2.20
2023-05-19T14:20:32.455Z,2.05
2023-05-19T14:22:59.498Z,2.53
2023-05-19T14:39:03.212Z,2.47
2023-05-19T14:41:30.060Z,2.00
2023-05-19T14:43:57.220Z,2.50
2023-05-19T14:46:24.549Z,2.08
2023-05-19T14:48:52.486Z,2.25
2023-05-19T14:51:19.293Z,2.35
2023-05-19T14:53:50.356Z,2.33
2023-05-19T14:58:50.569Z,2.50
2023-05-19T15:01:17.441Z,3.70
2023-05-19T15:03:44.377Z,2.70
2023-05-19T15:06:11.320Z,3.58
2023-05-19T15:08:48.027Z,2.22
2023-05-19T15:11:15.277Z,2.47
2023-05-19T15:13:42.334Z,1.90
2023-05-19T15:18:41.826Z,2.53
2023-05-19T15:21:08.645Z,2.05
2023-05-19T15:23:36.824Z,2.53
2023-05-19T15:26:03.772Z,2.42
2023-05-19T15:28:30.843Z,3.10
2023-05-19T15:30:57.722Z,2.10
2023-05-19T15:33:24.599Z,2.08
2023-05-19T15:35:52.604Z,2.33
2023-05-19T15:38:20.014Z,2.15
2023-05-19T15:40:47.213Z,1.90
2023-05-19T15:43:14.713Z,2.20
2023-05-19T15:45:41.568Z,2.45
2023-05-19T15:48:08.625Z,4.25
2023-05-19T15:50:36.090Z,1.70
2023-05-19T15:53:03.360Z,1.70
2023-05-19T15:55:30.602Z,2.10
2023-05-19T15:57:57.452Z,2.17
2023-05-19T16:00:24.351Z,2.15
2023-05-19T16:02:51.281Z,2.28
2023-05-19T16:05:18.573Z,1.88
2023-05-19T16:07:45.770Z,2.42
2023-05-19T16:10:12.713Z,1.77
2023-05-19T16:12:39.771Z,2.58
2023-05-19T16:15:07.152Z,3.47
2023-05-19T16:17:34.899Z,2.17
2023-05-19T16:20:07.924Z,2.00
2023-05-19T16:22:35.738Z,1.85
2023-05-19T16:25:02.865Z,2.72
2023-05-19T16:27:30.873Z,1.80
2023-05-19T16:29:59.189Z,2.03
2023-05-19T16:32:26.254Z,1.80
2023-05-19T16:34:53.537Z,2.80
2023-05-19T16:42:36.767Z,2.20
2023-05-19T16:45:04.265Z,2.22
2023-05-19T16:47:33.898Z,2.08
2023-05-19T16:50:00.994Z,2.35
2023-05-19T16:52:28.497Z,2.13
2023-05-19T16:54:58.319Z,5.97
2023-05-19T16:57:25.443Z,2.58
2023-05-19T16:59:52.372Z,2.05
2023-05-19T17:02:19.566Z,1.75
2023-05-19T17:05:05.609Z,2.13
2023-05-19T17:07:54.458Z,2.58
2023-05-19T17:10:25.959Z,1.80
2023-05-19T17:12:53.054Z,2.47
2023-05-19T17:15:20.051Z,2.55
2023-05-19T17:18:07.435Z,2.25
2023-05-19T17:20:36.075Z,2.40
2023-05-19T17:23:04.759Z,1.98
2023-05-19T17:25:35.185Z,2.05
2023-05-19T17:28:05.203Z,2.25
2023-05-19T17:30:52.582Z,2.47
2023-05-19T17:33:25.661Z,2.20
2023-05-19T17:35:53.019Z,2.10
2023-05-19T17:38:19.851Z,2.72
2023-05-19T17:40:47.302Z,2.50
2023-05-19T17:43:14.420Z,3.40
2023-05-19T17:45:41.299Z,7.50
2023-05-19T18:08:50.573Z,2.72
2023-05-19T18:11:19.040Z,2.13
2023-05-19T18:33:53.719Z,2.38
2023-05-19T18:36:29.248Z,1.77
2023-05-19T18:38:58.269Z,3.10
2023-05-19T18:41:28.410Z,2.08
2023-05-19T18:43:55.443Z,2.35
2023-05-19T18:46:28.246Z,2.03
2023-05-19T18:48:55.556Z,2.10
2023-05-19T18:51:54.961Z,2.40
2023-05-19T18:55:04.034Z,2.55
2023-05-19T18:59:58.382Z,2.25
2023-05-19T19:02:25.679Z,2.30
2023-05-19T19:04:54.242Z,2.10
2023-05-19T19:10:25.562Z,2.42
2023-05-19T19:12:52.434Z,2.20
2023-05-19T19:15:28.425Z,2.60
2023-05-19T19:17:56.887Z,2.83
2023-05-19T19:23:01.898Z,2.90
2023-05-19T19:25:29.438Z,2.83
2023-05-19T19:27:56.296Z,2.97
2023-05-19T19:30:23.261Z,2.35
2023-05-19T19:32:50.283Z,2.53
2023-05-19T19:35:21.196Z,3.22
2023-05-19T19:37:49.843Z,3.17
2023-05-19T19:40:17.748Z,2.13
2023-05-19T19:42:47.702Z,2.33
2023-05-19T19:45:15.875Z,3.05
2023-05-19T19:47:43.003Z,5.28
2023-05-19T19:50:11.664Z,2.67
2023-05-19T19:52:41.796Z,2.13
2023-05-19T19:55:09.754Z,2.50
2023-05-19T19:57:36.994Z,2.00
2023-05-19T20:00:08.004Z,2.30
2023-05-19T20:02:41.060Z,2.53
2023-05-19T20:05:12.821Z,2.40
2023-05-19T20:07:39.698Z,2.90
2023-05-19T20:10:06.834Z,3.00
2023-05-19T20:12:33.758Z,3.40
2023-05-19T20:15:03.159Z,2.63
2023-05-19T20:17:30.113Z,3.70
2023-05-19T20:19:57.948Z,4.30
2023-05-19T20:22:26.251Z,4.30
2023-05-19T20:24:53.204Z,4.47
2023-05-19T20:27:20.108Z,3.78
2023-05-19T20:29:48.455Z,4.30
2023-05-19T20:32:15.479Z,4.10
2023-05-19T20:34:45.666Z,4.75
2023-05-19T20:37:14.222Z,4.13
2023-05-19T20:39:41.369Z,3.80
2023-05-19T20:42:08.642Z,4.68
2023-05-19T20:44:36.042Z,4.35
2023-05-19T20:47:04.275Z,4.88
2023-05-19T20:49:31.323Z,4.38
2023-05-19T20:51:58.242Z,4.03
2023-05-19T20:54:25.325Z,4.22
2023-05-19T20:56:52.232Z,4.45
2023-05-19T20:59:19.085Z,4.40
2023-05-19T21:01:46.314Z,4.43
2023-05-19T21:04:13.745Z,4.68
2023-05-19T21:06:40.768Z,3.97
2023-05-19T21:09:07.728Z,4.10
2023-05-19T21:11:34.830Z,4.05
2023-05-19T21:14:04.934Z,4.20
2023-05-19T21:16:32.335Z,4.13
2023-05-19T21:18:59.721Z,3.70
2023-05-19T21:21:26.744Z,4.20
2023-05-19T21:23:53.916Z,4.05
2023-05-19T21:26:22.084Z,3.97
2023-05-19T21:28:49.153Z,3.75
2023-05-19T21:31:16.144Z,5.80
2023-05-19T21:33:43.320Z,5.35
2023-05-19T21:36:10.221Z,3.88
2023-05-19T21:38:37.115Z,3.90
2023-05-19T21:41:04.149Z,4.38
2023-05-19T21:43:31.116Z,3.80
2023-05-19T21:46:01.253Z,3.70
2023-05-19T21:48:28.279Z,4.10
2023-05-19T21:50:55.646Z,4.18
2023-05-19T21:53:22.818Z,3.97
2023-05-19T21:55:50.293Z,4.40
2023-05-19T21:58:17.432Z,4.05
2023-05-19T22:00:52.731Z,3.88
2023-05-19T22:03:19.835Z,3.78
2023-05-19T22:05:52.160Z,4.10
2023-05-19T22:08:20.730Z,3.45
2023-05-19T22:10:51.510Z,4.10
2023-05-19T22:13:19.471Z,5.88
2023-05-19T22:15:46.747Z,4.63
2023-05-19T22:18:13.733Z,3.70
2023-05-19T22:20:40.731Z,3.40
2023-05-19T22:23:07.811Z,3.67
2023-05-19T22:25:35.948Z,3.70
2023-05-19T22:28:03.034Z,3.65
2023-05-19T22:30:30.260Z,3.72
2023-05-19T22:32:57.100Z,3.53
2023-05-19T22:35:24.394Z,3.65
2023-05-19T22:37:51.735Z,4.15
2023-05-19T22:40:19.030Z,4.95
2023-05-19T22:42:46.000Z,4.38
2023-05-19T22:45:13.043Z,4.03
2023-05-19T22:47:40.072Z,5.10
2023-05-19T22:50:10.073Z,4.18
2023-05-19T22:52:37.508Z,3.28
2023-05-19T22:55:05.192Z,3.58
2023-05-19T22:57:34.703Z,3.42
2023-05-19T23:00:01.610Z,4.55
2023-05-19T23:02:28.715Z,7.93
2023-05-19T23:04:57.725Z,4.18
2023-05-19T23:07:24.844Z,3.53
2023-05-19T23:09:51.950Z,4.00
2023-05-19T23:12:18.955Z,3.47
2023-05-19T23:14:46.079Z,3.67
2023-05-19T23:17:14.083Z,4.30
2023-05-19T23:19:41.125Z,3.92
2023-05-19T23:22:08.065Z,3.88
2023-05-19T23:24:35.046Z,3.78
2023-05-19T23:27:01.909Z,3.70
2023-05-19T23:29:28.983Z,5.25
2023-05-19T23:31:55.958Z,4.35
2023-05-19T23:34:22.797Z,5.10
2023-05-19T23:36:49.756Z,4.05
2023-05-19T23:39:16.657Z,4.45
2023-05-19T23:41:43.462Z,4.63
2023-05-19T23:44:10.548Z,4.38
2023-05-19T23:46:37.350Z,4.43
2023-05-19T23:49:04.224Z,3.90
2023-05-19T23:51:32.027Z,4.50
2023-05-19T23:53:59.055Z,7.35
2023-05-19T23:56:26.105Z,3.80
2023-05-19T23:58:53.153Z,8.07
